Аэропорт: Наримановка. Костанай

ICAO: UAUU

METAR:
2022-01-28 09:00:00
UAUU 280900Z 13001MPS 9999 BKN007 OVC046 M09/M12 Q1022 NOSIG RMK QFE751/1001
METAR:
2022-01-28 08:05:00
TAF UAUU 280805Z 2809/2818 09003MPS 6000 BKN011 TEMPO 2809/2811 07003MPS 3100 -SN BR BKN008 TEMPO 2811/2818 06003MPS 0300 -SN FZFG VV002